ADDS METAR Data INFO
IDs: Format: Raw Decoded Include TAF

Data at: 0128 UTC 23 Nov 2017

METAR for:PASD (Sand Point Arpt, AK, US)
Text:PASD 230056Z 25012KT 10SM FEW014 BKN019 OVC034 08/06 A2945 RMK AO2 RAE28 SLP976 VCSH SE-W KH P0000 T00830056
Temperature: 8.3°C ( 47°F)
Dewpoint: 5.6°C ( 42°F) [RH = 83%]
Pressure (altimeter):29.45 inches Hg ( 997.4 mb) [Sea level pressure: 997.6 mb]
Winds:from the WSW (250 degrees) at 14 MPH (12 knots; 6.2 m/s)
Visibility:10 or more sm (16+ km)
Ceiling:1900 feet AGL
Clouds: few clouds at 1400 feet AGL, broken clouds at 1900 feet AGL, overcast cloud deck at 3400 feet AGL
Text:PASD 230030Z 22014G17KT 9SM SCT012 BKN018 BKN035 08/06 A2947 RMK AO2 RAE28 PRESFR VCSH SE-W KH P0000
Temperature: 8.0°C ( 46°F)
Dewpoint: 6.0°C ( 43°F) [RH = 87%]
Pressure (altimeter):29.47 inches Hg ( 998.1 mb)
Winds:from the SW (220 degrees) at 16 MPH (14 knots; 7.2 m/s) gusting to 20 MPH (17 knots; 8.7 m/s)
Visibility: 9 sm ( 14 km)
Ceiling:1800 feet AGL
Clouds: scattered clouds at 1200 feet AGL, broken clouds at 1800 feet AGL, broken clouds at 3500 feet AGL
Text:PASD 230020Z 22010G23KT 190V260 9SM -RA SCT012 BKN018 OVC028 07/06 A2949 RMK AO2 VIS LWR SE-S KH P0000
Temperature: 7.0°C ( 45°F)
Dewpoint: 6.0°C ( 43°F) [RH = 93%]
Pressure (altimeter):29.49 inches Hg ( 998.7 mb)
Winds:from the SW (220 degrees) at 12 MPH (10 knots; 5.1 m/s) gusting to 26 MPH (23 knots; 11.8 m/s)
Visibility: 9 sm ( 14 km)
Ceiling:1800 feet AGL
Clouds: scattered clouds at 1200 feet AGL, broken clouds at 1800 feet AGL, overcast cloud deck at 2800 feet AGL
Weather:-RA (light rain)
Text:PASD 222356Z 21016G21KT 6SM -RA BR BKN015 OVC021 06/06 A2950 RMK PK WND 21026/17 PRESFR KH
Temperature: 6.0°C ( 43°F)
Dewpoint: 6.0°C ( 43°F) [RH = 100%]
Pressure (altimeter):29.50 inches Hg ( 999.1 mb)
Winds:from the SSW (210 degrees) at 18 MPH (16 knots; 8.2 m/s) gusting to 24 MPH (21 knots; 10.8 m/s)
Visibility: 6 sm ( 10 km)
Ceiling:1500 feet AGL
Clouds: broken clouds at 1500 feet AGL, overcast cloud deck at 2100 feet AGL
Weather:-RA BR (light rain, mist)
Text:PASD 222256Z 20016KT 6SM -RA BR BKN015 OVC020 06/03 A2959 RMK AO2 PK WND 21028/2221 PRESFR SLP021 KH P0000 T00560033
Temperature: 5.6°C ( 42°F)
Dewpoint: 3.3°C ( 38°F) [RH = 85%]
Pressure (altimeter):29.59 inches Hg (1002.1 mb) [Sea level pressure: 1002.1 mb]
Winds:from the SSW (200 degrees) at 18 MPH (16 knots; 8.2 m/s)
Visibility: 6 sm ( 10 km)
Ceiling:1500 feet AGL
Clouds: broken clouds at 1500 feet AGL, overcast cloud deck at 2000 feet AGL
Weather:-RA BR (light rain, mist)
Text:PASD 222156Z 21019G25KT 5SM -RA BR FEW014 BKN018 OVC022 04/03 A2966 RMK AO2 PK WND 20030/2103 SLP048 KH P0002 T00440028
Temperature: 4.4°C ( 40°F)
Dewpoint: 2.8°C ( 37°F) [RH = 89%]
Pressure (altimeter):29.66 inches Hg (1004.5 mb) [Sea level pressure: 1004.8 mb]
Winds:from the SSW (210 degrees) at 22 MPH (19 knots; 9.8 m/s) gusting to 29 MPH (25 knots; 12.9 m/s)
Visibility: 5 sm ( 8 km)
Ceiling:1800 feet AGL
Clouds: few clouds at 1400 feet AGL, broken clouds at 1800 feet AGL, overcast cloud deck at 2200 feet AGL
Weather:-RA BR (light rain, mist)
Text:PASD 222135Z 20020G26KT 5SM -RA BR FEW014 BKN018 OVC023 04/02 A2969 RMK AO2 PK WND 20030/2103 KH P0002
Temperature: 4.0°C ( 39°F)
Dewpoint: 2.0°C ( 36°F) [RH = 87%]
Pressure (altimeter):29.69 inches Hg (1005.5 mb)
Winds:from the SSW (200 degrees) at 23 MPH (20 knots; 10.3 m/s) gusting to 30 MPH (26 knots; 13.4 m/s)
Visibility: 5 sm ( 8 km)
Ceiling:1800 feet AGL
Clouds: few clouds at 1400 feet AGL, broken clouds at 1800 feet AGL, overcast cloud deck at 2300 feet AGL
Weather:-RA BR (light rain, mist)
Text:PASD 222056Z 21025G29KT 7SM -RA SCT015 BKN020 OVC025 05/02 A2973 RMK PK WND 21033/37 PRESFR KH
Temperature: 5.0°C ( 41°F)
Dewpoint: 2.0°C ( 36°F) [RH = 81%]
Pressure (altimeter):29.73 inches Hg (1006.9 mb)
Winds:from the SSW (210 degrees) at 29 MPH (25 knots; 12.9 m/s) gusting to 33 MPH (29 knots; 14.9 m/s)
Visibility: 7 sm ( 11 km)
Ceiling:2000 feet AGL
Clouds: scattered clouds at 1500 feet AGL, broken clouds at 2000 feet AGL, overcast cloud deck at 2500 feet AGL
Weather:-RA (light rain)

TAF for:PASD (Sand Point Arpt, AK, US) issued at 2320 UTC 22 Nov 2017
Text:PASD 222320Z 2300/2324 21020G30KT 5SM -RA BKN015 OVC020
Forecast period:0000 to 0400 UTC 23 November 2017
Forecast type:FROM: standard forecast or significant change
Winds:from the SSW (210 degrees) at 23 MPH (20 knots; 10.3 m/s) gusting to 34 MPH (30 knots; 15.4 m/s)
Visibility: 5 sm ( 8 km)
Ceiling:1500 feet AGL
Clouds: broken clouds at 1500 feet AGL, overcast cloud deck at 2000 feet AGL
Weather:-RA (light rain)
Text:TEMPO 2300/2304 22018KT 6SM -RA BR SCT015 OVC020
Forecast period:0000 to 0400 UTC 23 November 2017
Forecast type:TEMPORARY: The following changes expected for less than half the time period
Winds:from the SW (220 degrees) at 21 MPH (18 knots; 9.3 m/s)
Visibility: 6 sm ( 10 km)
Ceiling:2000 feet AGL
Clouds: scattered clouds at 1500 feet AGL, overcast cloud deck at 2000 feet AGL
Weather:-RA BR (light rain, mist)
Text:FM230400 27027G35KT P6SM VCSH SCT030 BKN050
Forecast period:0400 to 1200 UTC 23 November 2017
Forecast type:FROM: standard forecast or significant change
Winds:from the W (270 degrees) at 31 MPH (27 knots; 13.9 m/s) gusting to 40 MPH (35 knots; 18.0 m/s)
Visibility:6 or more sm (10+ km)
Ceiling:5000 feet AGL
Clouds: scattered clouds at 3000 feet AGL, broken clouds at 5000 feet AGL
Weather:VCSH (showers in vicinity)
Text:FM231200 28035G45KT 6SM -SHRA SCT020 OVC030
Forecast period:1200 to 1500 UTC 23 November 2017
Forecast type:FROM: standard forecast or significant change
Winds:from the W (280 degrees) at 40 MPH (35 knots; 18.0 m/s) gusting to 52 MPH (45 knots; 23.1 m/s)
Visibility: 6 sm ( 10 km)
Ceiling:3000 feet AGL
Clouds: scattered clouds at 2000 feet AGL, overcast cloud deck at 3000 feet AGL
Weather:-SHRA (light rain showers)
Text:FM231500 30042G58KT 5SM -SHRA SCT020 OVC030 AMD LTD TO CLD VIS AND WIND
Forecast period:1500 UTC 23 November 2017 to 0000 UTC 24 November 2017
Forecast type:FROM: standard forecast or significant change
Winds:from the WNW (300 degrees) at 48 MPH (42 knots; 21.6 m/s) gusting to 67 MPH (58 knots; 29.8 m/s)
Visibility: 5 sm ( 8 km)
Ceiling:3000 feet AGL
Clouds: scattered clouds at 2000 feet AGL, overcast cloud deck at 3000 feet AGL
Weather:-SHRA (light rain showers)